createdAt,value
2023-05-05T00:00:57.946Z,12.75
2023-05-05T00:02:02.525Z,12.73
2023-05-05T00:03:12.472Z,12.76
2023-05-05T00:04:17.992Z,12.77
2023-05-05T00:05:21.972Z,12.80
2023-05-05T00:06:29.337Z,12.80
2023-05-05T00:07:33.093Z,12.77
2023-05-05T00:08:37.130Z,12.79
2023-05-05T00:09:42.001Z,12.81
2023-05-05T00:10:48.065Z,12.81
2023-05-05T00:11:52.130Z,12.82
2023-05-05T00:12:56.057Z,12.82
2023-05-05T00:14:00.198Z,12.80
2023-05-05T00:15:06.624Z,12.77
2023-05-05T00:16:11.513Z,12.75
2023-05-05T00:17:15.755Z,12.73
2023-05-05T00:18:21.366Z,12.72
2023-05-05T00:19:25.591Z,12.73
2023-05-05T00:20:29.575Z,12.75
2023-05-05T00:21:33.466Z,12.75
2023-05-05T00:22:37.215Z,12.70
2023-05-05T00:23:41.080Z,12.69
2023-05-05T00:24:45.022Z,12.73
2023-05-05T00:25:49.130Z,12.72
2023-05-05T00:26:53.190Z,12.73
2023-05-05T00:27:57.071Z,12.70
2023-05-05T00:29:01.048Z,12.73
2023-05-05T00:30:05.824Z,12.58
2023-05-05T00:31:09.733Z,12.59
2023-05-05T00:32:14.243Z,12.60
2023-05-05T00:33:18.004Z,12.63
2023-05-05T00:34:21.798Z,12.60
2023-05-05T00:35:25.564Z,12.60
2023-05-05T00:36:29.407Z,12.58
2023-05-05T00:37:33.187Z,12.54
2023-05-05T00:38:37.404Z,12.55
2023-05-05T00:39:41.252Z,12.56
2023-05-05T00:40:45.253Z,12.55
2023-05-05T00:41:49.028Z,12.52
2023-05-05T00:42:53.635Z,12.52
2023-05-05T00:43:57.924Z,12.51
2023-05-05T00:45:02.366Z,12.51
2023-05-05T00:46:32.260Z,12.49
2023-05-05T00:47:36.616Z,12.47
2023-05-05T00:48:41.672Z,12.48
2023-05-05T00:49:46.109Z,12.48
2023-05-05T00:50:49.926Z,12.46
2023-05-05T00:51:54.124Z,12.41
2023-05-05T00:53:06.984Z,12.37
2023-05-05T00:54:11.346Z,12.38
2023-05-05T00:55:15.317Z,12.34
2023-05-05T00:56:22.196Z,12.35
2023-05-05T00:57:26.625Z,12.35
2023-05-05T00:58:31.496Z,12.31
2023-05-05T00:59:37.277Z,12.30
2023-05-05T01:00:41.295Z,12.29
2023-05-05T01:01:46.586Z,12.29
2023-05-05T01:02:52.669Z,12.29
2023-05-05T01:03:57.377Z,12.21
2023-05-05T01:05:01.728Z,12.22
2023-05-05T01:06:38.346Z,12.23
2023-05-05T01:07:48.616Z,12.13
2023-05-05T01:09:39.204Z,12.07
2023-05-05T01:11:10.343Z,12.10
2023-05-05T01:12:53.862Z,12.08
2023-05-05T01:14:14.778Z,12.04
2023-05-05T01:15:42.823Z,12.02
2023-05-05T01:17:29.076Z,12.01
2023-05-05T01:18:51.869Z,11.91
2023-05-05T01:20:23.891Z,11.90
2023-05-05T01:21:40.104Z,11.87
2023-05-05T01:22:50.108Z,11.86
2023-05-05T01:24:26.503Z,11.80
2023-05-05T01:25:51.229Z,11.79
2023-05-05T01:27:27.334Z,11.75
2023-05-05T01:29:23.280Z,11.68
2023-05-05T01:31:00.938Z,11.67
2023-05-05T01:32:12.780Z,11.63
2023-05-05T01:33:28.965Z,11.61
2023-05-05T01:35:09.116Z,11.59
2023-05-05T01:36:24.488Z,11.57
2023-05-05T01:37:45.619Z,11.50
2023-05-05T01:38:58.325Z,11.50
2023-05-05T01:40:09.819Z,11.50
2023-05-05T01:41:25.915Z,11.47
2023-05-05T01:42:32.745Z,11.46
2023-05-05T01:43:38.109Z,11.45
2023-05-05T01:44:47.024Z,11.44
2023-05-05T01:45:53.870Z,11.44
2023-05-05T01:47:00.129Z,11.41
2023-05-05T01:48:10.717Z,11.41
2023-05-05T01:49:16.788Z,11.35
2023-05-05T01:50:23.378Z,11.32
2023-05-05T01:51:28.816Z,11.29
2023-05-05T01:52:36.012Z,11.30
2023-05-05T01:53:41.877Z,11.29
2023-05-05T01:54:49.027Z,11.26
2023-05-05T01:55:55.068Z,11.20
2023-05-05T01:57:03.684Z,11.21
2023-05-05T01:58:10.037Z,11.21
2023-05-05T01:59:15.315Z,11.20
2023-05-05T02:00:25.447Z,11.21
2023-05-05T02:01:30.977Z,11.17
2023-05-05T02:02:37.964Z,11.18
2023-05-05T02:03:44.883Z,11.17
2023-05-05T02:04:50.098Z,11.18
2023-05-05T02:05:55.546Z,11.16
2023-05-05T02:07:02.136Z,11.14
2023-05-05T02:08:09.992Z,11.15
2023-05-05T02:09:15.875Z,11.12
2023-05-05T02:10:19.869Z,11.08
2023-05-05T02:11:25.166Z,11.08
2023-05-05T02:12:31.765Z,11.08
2023-05-05T02:13:38.180Z,11.06
2023-05-05T02:14:44.291Z,11.06
2023-05-05T02:15:49.954Z,11.01
2023-05-05T02:16:56.651Z,10.95
2023-05-05T02:18:03.144Z,10.98
2023-05-05T02:19:07.911Z,10.96
2023-05-05T02:20:14.916Z,10.95
2023-05-05T02:21:20.235Z,10.96
2023-05-05T02:22:25.162Z,10.90
2023-05-05T02:23:30.272Z,10.85
2023-05-05T02:24:35.886Z,10.91
2023-05-05T02:25:46.275Z,10.91
2023-05-05T02:26:53.293Z,10.89
2023-05-05T02:28:01.139Z,10.87
2023-05-05T02:29:15.275Z,10.83
2023-05-05T02:30:21.265Z,10.87
2023-05-05T02:31:27.978Z,10.84
2023-05-05T02:32:55.359Z,10.88
2023-05-05T02:34:03.677Z,10.87
2023-05-05T02:35:17.560Z,10.83
2023-05-05T02:36:26.729Z,10.80
2023-05-05T02:37:34.754Z,10.77
2023-05-05T02:38:44.502Z,10.75
2023-05-05T02:39:59.155Z,10.71
2023-05-05T02:41:06.293Z,10.74
2023-05-05T02:42:16.939Z,10.74
2023-05-05T02:43:24.766Z,10.76
2023-05-05T02:44:32.057Z,10.77
2023-05-05T02:45:36.265Z,10.75
2023-05-05T02:46:40.515Z,10.73
2023-05-05T02:47:44.814Z,10.68
2023-05-05T02:48:48.627Z,10.71
2023-05-05T02:49:52.363Z,10.71
2023-05-05T02:50:56.315Z,10.69
2023-05-05T02:52:01.206Z,10.66
2023-05-05T02:53:05.629Z,10.68
2023-05-05T02:54:11.005Z,10.69
2023-05-05T02:55:15.621Z,10.70
2023-05-05T02:56:46.444Z,10.70
2023-05-05T02:58:22.209Z,10.72
2023-05-05T02:59:56.897Z,10.62
2023-05-05T03:01:42.758Z,10.53
2023-05-05T03:03:24.879Z,10.51
2023-05-05T03:04:55.557Z,10.57
2023-05-05T03:06:14.196Z,10.61
2023-05-05T03:07:33.607Z,10.56
2023-05-05T03:09:06.718Z,10.51
2023-05-05T03:10:20.496Z,10.57
2023-05-05T03:11:40.982Z,10.59
2023-05-05T03:12:58.655Z,10.58
2023-05-05T03:14:13.983Z,10.59
2023-05-05T03:15:22.519Z,10.64
2023-05-05T03:16:29.423Z,10.61
2023-05-05T03:17:36.896Z,10.60
2023-05-05T03:18:42.702Z,10.58
2023-05-05T03:19:48.091Z,10.61
2023-05-05T03:20:52.996Z,10.64
2023-05-05T03:21:57.205Z,10.56
2023-05-05T03:23:03.028Z,10.57
2023-05-05T03:24:21.359Z,10.59
2023-05-05T03:25:46.401Z,10.60
2023-05-05T03:26:50.809Z,10.64
2023-05-05T03:27:54.550Z,10.63
2023-05-05T03:28:58.308Z,10.64
2023-05-05T03:30:02.201Z,10.66
2023-05-05T03:31:06.269Z,10.62
2023-05-05T03:32:10.476Z,10.61
2023-05-05T03:33:15.944Z,10.58
2023-05-05T03:34:19.686Z,10.53
2023-05-05T03:35:23.624Z,10.55
2023-05-05T03:36:29.397Z,10.56
2023-05-05T03:37:33.374Z,10.61
2023-05-05T03:38:37.302Z,10.60
2023-05-05T03:39:41.323Z,10.62
2023-05-05T03:40:45.092Z,10.59
2023-05-05T03:41:49.443Z,10.58
2023-05-05T03:42:53.621Z,10.62
2023-05-05T03:43:57.340Z,10.67
2023-05-05T03:45:01.300Z,10.69
2023-05-05T03:46:05.588Z,10.72
2023-05-05T03:47:09.712Z,10.73
2023-05-05T03:48:13.494Z,10.73
2023-05-05T03:49:17.504Z,10.72
2023-05-05T03:50:21.632Z,10.75
2023-05-05T03:51:28.871Z,10.77
2023-05-05T03:52:32.694Z,10.74
2023-05-05T03:53:36.361Z,10.72
2023-05-05T03:54:40.079Z,10.74
2023-05-05T03:55:43.951Z,10.77
2023-05-05T03:56:47.991Z,10.70
2023-05-05T03:57:51.984Z,10.73
2023-05-05T03:58:56.035Z,10.73
2023-05-05T04:00:00.184Z,10.72
2023-05-05T04:01:04.134Z,10.75
2023-05-05T04:02:08.936Z,10.80
2023-05-05T04:03:13.357Z,10.85
2023-05-05T04:04:18.010Z,10.83
2023-05-05T04:05:23.117Z,10.85
2023-05-05T04:06:27.711Z,10.86
2023-05-05T04:07:31.527Z,10.88
2023-05-05T04:08:35.483Z,10.92
2023-05-05T04:09:44.467Z,10.90
2023-05-05T04:10:48.352Z,10.94
2023-05-05T04:11:52.019Z,10.96
2023-05-05T04:12:56.065Z,10.94
2023-05-05T04:13:59.929Z,10.95
2023-05-05T04:15:03.925Z,10.95
2023-05-05T04:16:09.031Z,10.94
2023-05-05T04:17:12.953Z,10.97
2023-05-05T04:18:17.412Z,10.98
2023-05-05T04:19:21.419Z,10.97
2023-05-05T04:20:25.684Z,10.98
2023-05-05T04:21:29.694Z,10.97
2023-05-05T04:22:33.524Z,10.98
2023-05-05T04:23:37.697Z,11.00
2023-05-05T04:24:42.145Z,10.99
2023-05-05T04:25:46.014Z,10.99
2023-05-05T04:26:49.796Z,10.98
2023-05-05T04:27:53.622Z,11.02
2023-05-05T04:28:57.392Z,11.00
2023-05-05T04:30:01.878Z,10.97
2023-05-05T04:31:06.211Z,10.99
2023-05-05T04:32:09.861Z,10.99
2023-05-05T04:33:14.119Z,10.97
2023-05-05T04:34:18.266Z,10.98
2023-05-05T04:35:22.461Z,10.96
2023-05-05T04:36:26.413Z,10.93
2023-05-05T04:37:30.091Z,10.97
2023-05-05T04:38:33.749Z,10.99
2023-05-05T04:39:37.552Z,10.96
2023-05-05T04:40:41.700Z,11.01
2023-05-05T04:41:45.819Z,11.02
2023-05-05T04:42:49.650Z,11.05
2023-05-05T04:43:56.979Z,11.04
2023-05-05T04:45:01.097Z,11.00
2023-05-05T04:46:05.726Z,11.02
2023-05-05T04:47:09.550Z,11.08
2023-05-05T04:48:14.479Z,11.13
2023-05-05T04:49:20.874Z,11.15
2023-05-05T04:50:25.218Z,11.24
2023-05-05T04:51:29.328Z,11.24
2023-05-05T04:52:33.648Z,11.26
2023-05-05T04:53:37.351Z,11.22
2023-05-05T04:54:41.385Z,11.25
2023-05-05T04:55:45.662Z,11.29
2023-05-05T04:56:50.021Z,11.36
2023-05-05T04:57:54.097Z,11.40
2023-05-05T04:58:58.619Z,11.50
2023-05-05T05:00:05.026Z,11.54
2023-05-05T05:01:09.808Z,11.55
2023-05-05T05:02:13.870Z,11.59
2023-05-05T05:03:18.024Z,11.73
2023-05-05T05:04:22.350Z,11.82
2023-05-05T05:05:31.001Z,11.86
2023-05-05T05:06:58.357Z,12.01
2023-05-05T05:08:02.988Z,12.07
2023-05-05T05:09:06.731Z,12.18
2023-05-05T05:10:11.247Z,12.29
2023-05-05T05:11:15.372Z,12.30
2023-05-05T05:12:20.142Z,12.33
2023-05-05T05:13:24.586Z,12.38
2023-05-05T05:14:28.994Z,12.46
2023-05-05T05:15:32.640Z,12.46
2023-05-05T05:16:36.510Z,12.56
2023-05-05T05:17:40.689Z,12.68
2023-05-05T05:18:44.708Z,12.92
2023-05-05T05:19:48.444Z,13.00
2023-05-05T05:20:52.204Z,13.19
2023-05-05T05:21:55.858Z,13.20
2023-05-05T05:23:02.274Z,13.25
2023-05-05T05:24:06.309Z,13.47
2023-05-05T05:25:10.268Z,13.60
2023-05-05T05:26:14.145Z,13.75
2023-05-05T05:27:18.310Z,13.92
2023-05-05T05:28:22.079Z,13.95
2023-05-05T05:29:27.443Z,14.04
2023-05-05T05:30:31.846Z,14.20
2023-05-05T05:31:37.079Z,14.30
2023-05-05T05:32:41.109Z,14.39
2023-05-05T05:33:45.488Z,14.54
2023-05-05T05:34:49.322Z,14.57
2023-05-05T05:35:53.091Z,14.49
2023-05-05T05:36:57.278Z,14.34
2023-05-05T05:38:01.438Z,14.54
2023-05-05T05:39:05.488Z,14.74
2023-05-05T05:40:10.086Z,14.75
2023-05-05T05:41:14.295Z,14.81
2023-05-05T05:42:21.677Z,14.84
2023-05-05T05:43:25.764Z,14.96
2023-05-05T05:44:30.129Z,15.16
2023-05-05T05:45:34.682Z,15.26
2023-05-05T05:46:38.473Z,15.26
2023-05-05T05:47:42.429Z,15.48
2023-05-05T05:48:46.894Z,15.67
2023-05-05T05:49:50.783Z,15.66
2023-05-05T05:50:55.733Z,15.93
2023-05-05T05:51:59.752Z,16.15
2023-05-05T05:53:03.477Z,16.34
2023-05-05T05:54:07.427Z,16.54
2023-05-05T05:55:11.377Z,16.59
2023-05-05T05:56:15.737Z,16.63
2023-05-05T05:57:19.738Z,16.81
2023-05-05T05:58:23.477Z,16.86
2023-05-05T05:59:27.442Z,16.89
2023-05-05T06:00:35.355Z,16.89
2023-05-05T06:01:40.641Z,16.91
2023-05-05T06:02:44.634Z,17.04
2023-05-05T06:03:48.833Z,16.95
2023-05-05T06:04:52.841Z,16.96
2023-05-05T06:05:56.830Z,16.90
2023-05-05T06:07:00.718Z,17.16
2023-05-05T06:08:05.031Z,17.28
2023-05-05T06:09:08.942Z,17.34
2023-05-05T06:10:26.472Z,17.34
2023-05-05T06:11:33.296Z,17.47
2023-05-05T06:12:37.543Z,17.52
2023-05-05T06:13:42.201Z,17.49
2023-05-05T06:14:46.337Z,17.55
2023-05-05T06:15:50.262Z,17.58
2023-05-05T06:16:54.386Z,17.60
2023-05-05T06:17:58.690Z,17.78
2023-05-05T06:19:10.036Z,17.72
2023-05-05T06:20:14.321Z,17.52
2023-05-05T06:21:20.884Z,17.60
2023-05-05T06:22:25.348Z,17.76
2023-05-05T06:23:29.057Z,17.87
2023-05-05T06:24:33.031Z,17.79
2023-05-05T06:25:37.098Z,17.71
2023-05-05T06:26:40.853Z,17.88
2023-05-05T06:27:44.775Z,18.07
2023-05-05T06:28:48.983Z,18.17
2023-05-05T06:29:52.947Z,18.32
2023-05-05T06:30:57.417Z,18.42
2023-05-05T06:32:01.715Z,18.65
2023-05-05T06:33:05.975Z,18.77
2023-05-05T06:34:10.739Z,18.93
2023-05-05T06:35:30.000Z,19.11
2023-05-05T06:36:40.138Z,19.10
2023-05-05T06:37:44.727Z,18.92
2023-05-05T06:38:48.698Z,19.17
2023-05-05T06:39:55.281Z,19.33
2023-05-05T06:40:59.281Z,19.32
2023-05-05T06:42:04.311Z,19.66
2023-05-05T06:43:08.497Z,20.05
2023-05-05T06:44:12.662Z,20.16
2023-05-05T06:45:17.244Z,20.45
2023-05-05T06:46:21.557Z,20.72
2023-05-05T06:47:29.732Z,20.74
2023-05-05T06:48:33.822Z,21.06
2023-05-05T06:49:37.778Z,21.33
2023-05-05T06:50:42.625Z,21.48
2023-05-05T06:51:46.418Z,21.65
2023-05-05T06:52:50.470Z,21.82
2023-05-05T06:53:54.633Z,22.31
2023-05-05T06:54:58.720Z,22.19
2023-05-05T06:56:02.941Z,22.66
2023-05-05T06:57:06.895Z,22.55
2023-05-05T06:58:12.009Z,23.06
2023-05-05T06:59:16.491Z,23.53
2023-05-05T07:00:22.262Z,23.55
2023-05-05T07:01:26.530Z,24.03
2023-05-05T07:02:30.906Z,24.37
2023-05-05T07:03:34.926Z,24.77
2023-05-05T07:04:38.763Z,24.33
2023-05-05T07:05:42.829Z,24.35
2023-05-05T07:06:46.997Z,24.42
2023-05-05T07:07:56.771Z,24.72
2023-05-05T07:09:01.240Z,25.08
2023-05-05T07:10:06.334Z,25.47
2023-05-05T07:11:11.548Z,25.52
2023-05-05T07:12:16.057Z,25.58
2023-05-05T07:13:20.796Z,26.19
2023-05-05T07:14:24.799Z,26.63
2023-05-05T07:15:29.780Z,26.74
2023-05-05T07:16:34.897Z,26.55
2023-05-05T07:17:39.021Z,27.10
2023-05-05T07:18:42.777Z,27.12
2023-05-05T07:19:46.711Z,27.01
2023-05-05T07:20:50.570Z,27.21
2023-05-05T07:21:54.658Z,27.54
2023-05-05T07:22:58.331Z,27.32
2023-05-05T07:24:04.162Z,27.44
2023-05-05T07:25:08.864Z,27.44
2023-05-05T07:26:12.916Z,27.64
2023-05-05T07:27:17.268Z,27.98
2023-05-05T07:28:22.643Z,27.73
2023-05-05T07:29:26.884Z,28.20
2023-05-05T07:30:30.875Z,28.52
2023-05-05T07:31:34.843Z,28.17
2023-05-05T07:32:40.868Z,28.49
2023-05-05T07:33:45.958Z,28.61
2023-05-05T07:34:49.948Z,28.44
2023-05-05T07:35:53.948Z,28.04
2023-05-05T07:36:58.425Z,28.34
2023-05-05T07:38:02.454Z,28.64
2023-05-05T07:39:07.787Z,28.90
2023-05-05T07:40:12.429Z,29.13
2023-05-05T07:41:18.599Z,29.29
2023-05-05T07:42:25.459Z,29.53
2023-05-05T07:43:31.230Z,29.42
2023-05-05T07:44:35.631Z,28.93
2023-05-05T07:45:39.377Z,28.91
2023-05-05T07:46:43.515Z,28.87
2023-05-05T07:47:47.383Z,29.46
2023-05-05T07:48:51.291Z,29.66
2023-05-05T07:49:55.397Z,29.80
2023-05-05T07:50:59.892Z,30.11
2023-05-05T07:52:05.177Z,30.20
2023-05-05T07:53:14.374Z,30.33
2023-05-05T07:54:19.764Z,30.41
2023-05-05T07:55:24.412Z,30.30
2023-05-05T07:56:29.025Z,30.18
2023-05-05T07:57:33.224Z,29.99
2023-05-05T07:58:37.386Z,29.88
2023-05-05T07:59:43.563Z,30.07
2023-05-05T08:00:50.333Z,30.17
2023-05-05T08:01:55.024Z,29.94
2023-05-05T08:02:59.529Z,29.80
2023-05-05T08:04:03.685Z,30.18
2023-05-05T08:05:08.557Z,30.40
2023-05-05T08:06:16.364Z,30.02
2023-05-05T08:07:21.095Z,30.31
2023-05-05T08:08:25.389Z,30.39
2023-05-05T08:09:29.574Z,30.42
2023-05-05T08:10:33.919Z,30.81
2023-05-05T08:11:40.873Z,30.86
2023-05-05T08:12:46.441Z,30.72
2023-05-05T08:13:50.289Z,30.69
2023-05-05T08:14:54.510Z,30.88
2023-05-05T08:15:58.494Z,30.32
2023-05-05T08:17:02.362Z,30.17
2023-05-05T08:18:07.962Z,29.98
2023-05-05T08:19:21.060Z,29.58
2023-05-05T08:20:31.988Z,29.35
2023-05-05T08:21:38.879Z,29.29
2023-05-05T08:22:43.560Z,29.10
2023-05-05T08:23:48.452Z,29.18
2023-05-05T08:24:52.520Z,29.38
2023-05-05T08:25:56.552Z,29.81
2023-05-05T08:27:02.841Z,29.76
2023-05-05T08:28:06.932Z,29.47
2023-05-05T08:29:11.062Z,29.70
2023-05-05T08:30:17.370Z,29.89
2023-05-05T08:31:22.083Z,30.00
2023-05-05T08:32:27.854Z,29.99
2023-05-05T08:33:33.897Z,30.42
2023-05-05T08:34:37.746Z,30.27
2023-05-05T08:35:43.464Z,30.55
2023-05-05T08:36:49.216Z,30.34
2023-05-05T08:37:53.229Z,30.33
2023-05-05T08:38:57.569Z,30.15
2023-05-05T08:40:01.636Z,30.01
2023-05-05T08:41:13.313Z,29.98
2023-05-05T08:42:32.880Z,29.96
2023-05-05T08:43:41.838Z,29.39
2023-05-05T08:44:46.076Z,29.38
2023-05-05T08:45:52.240Z,29.03
2023-05-05T08:46:57.495Z,28.78
2023-05-05T08:48:05.243Z,28.58
2023-05-05T08:49:17.058Z,28.07
2023-05-05T08:50:28.057Z,27.62
2023-05-05T08:51:42.176Z,27.23
2023-05-05T08:53:03.354Z,27.03
2023-05-05T08:54:16.124Z,26.63
2023-05-05T08:55:31.114Z,26.37
2023-05-05T08:56:44.101Z,25.77
2023-05-05T08:57:58.548Z,25.33
2023-05-05T08:59:05.449Z,25.18
2023-05-05T09:00:13.422Z,25.04
2023-05-05T09:01:18.711Z,24.63
2023-05-05T09:02:24.657Z,24.52
2023-05-05T09:03:32.211Z,24.36
2023-05-05T09:04:37.449Z,24.32
2023-05-05T09:05:44.439Z,24.28
2023-05-05T09:06:49.230Z,24.21
2023-05-05T09:07:54.181Z,24.12
2023-05-05T09:08:59.649Z,23.88
2023-05-05T09:10:06.656Z,23.64
2023-05-05T09:11:10.665Z,23.57
2023-05-05T09:12:17.157Z,23.47
2023-05-05T09:16:05.303Z,22.75
2023-05-05T09:17:25.284Z,22.71
2023-05-05T09:18:29.941Z,22.51
2023-05-05T09:19:33.921Z,22.44
2023-05-05T09:20:40.308Z,22.36
2023-05-05T09:21:50.047Z,22.35
2023-05-05T09:22:53.804Z,22.31
2023-05-05T09:24:11.714Z,22.39
2023-05-05T09:25:18.926Z,22.43
2023-05-05T09:26:23.742Z,22.41
2023-05-05T09:27:28.317Z,22.28
2023-05-05T09:28:32.815Z,22.17
2023-05-05T09:29:37.004Z,22.13
2023-05-05T09:30:45.224Z,22.03
2023-05-05T09:32:08.819Z,21.98
2023-05-05T09:33:14.467Z,21.85
2023-05-05T09:34:19.637Z,21.69
2023-05-05T09:35:24.170Z,21.63
2023-05-05T09:36:49.286Z,21.67
2023-05-05T09:37:53.634Z,21.64
2023-05-05T09:39:07.769Z,21.52
2023-05-05T09:40:19.171Z,21.53
2023-05-05T09:41:38.742Z,21.51
2023-05-05T09:42:42.746Z,21.43
2023-05-05T09:43:52.908Z,21.44
2023-05-05T09:44:59.745Z,21.39
2023-05-05T09:46:08.625Z,21.39
2023-05-05T09:47:26.143Z,21.38
2023-05-05T09:48:33.407Z,21.30
2023-05-05T09:49:39.451Z,21.27
2023-05-05T09:50:45.242Z,21.25
2023-05-05T09:51:50.157Z,21.21
2023-05-05T09:53:02.920Z,21.23
2023-05-05T09:54:07.521Z,21.27
2023-05-05T09:55:18.482Z,21.29
2023-05-05T09:56:36.745Z,21.17
2023-05-05T09:57:40.894Z,21.15
2023-05-05T09:58:44.913Z,21.16
2023-05-05T10:00:04.578Z,21.13
2023-05-05T10:01:23.955Z,21.07
2023-05-05T10:02:35.618Z,21.14
2023-05-05T10:03:53.231Z,21.07
2023-05-05T10:05:13.098Z,21.13
2023-05-05T10:06:20.087Z,21.12
2023-05-05T10:07:25.030Z,21.09
2023-05-05T10:08:32.174Z,21.10
2023-05-05T10:09:36.791Z,21.07
2023-05-05T10:11:10.804Z,21.06
2023-05-05T10:12:15.213Z,20.99
2023-05-05T10:13:24.099Z,20.95
2023-05-05T10:14:34.465Z,20.81
2023-05-05T10:15:40.240Z,20.74
2023-05-05T10:16:55.936Z,20.56
2023-05-05T10:18:07.469Z,20.50
2023-05-05T10:19:17.066Z,20.53
2023-05-05T10:20:24.376Z,20.52
2023-05-05T10:21:36.539Z,20.45
2023-05-05T10:22:45.861Z,20.30
2023-05-05T10:24:04.031Z,20.27
2023-05-05T10:25:14.280Z,20.24
2023-05-05T10:26:23.732Z,20.25
2023-05-05T10:27:34.366Z,20.28
2023-05-05T10:28:51.053Z,20.26
2023-05-05T10:30:10.824Z,20.26
2023-05-05T10:31:26.401Z,20.29
2023-05-05T10:32:57.326Z,20.26
2023-05-05T10:34:12.411Z,20.19
2023-05-05T10:35:24.686Z,20.08
2023-05-05T10:36:32.073Z,19.99
2023-05-05T10:37:39.509Z,19.95
2023-05-05T10:38:46.906Z,19.95
2023-05-05T10:39:53.071Z,19.92
2023-05-05T10:41:00.268Z,19.89
2023-05-05T10:42:04.771Z,19.83
2023-05-05T10:43:09.697Z,19.84
2023-05-05T10:44:15.386Z,19.87
2023-05-05T10:45:19.249Z,19.88
2023-05-05T10:46:27.119Z,19.90
2023-05-05T10:47:33.280Z,19.91
2023-05-05T10:49:02.952Z,19.94
2023-05-05T10:50:33.654Z,20.01
2023-05-05T10:52:15.499Z,20.01
2023-05-05T10:53:26.601Z,19.84
2023-05-05T10:54:40.288Z,19.79
2023-05-05T10:56:15.426Z,19.62
2023-05-05T10:57:27.380Z,19.68
2023-05-05T10:58:51.297Z,19.64
2023-05-05T11:00:00.061Z,19.63
2023-05-05T11:01:07.378Z,19.61
2023-05-05T11:02:28.401Z,19.61
2023-05-05T11:03:33.822Z,19.56
2023-05-05T11:04:50.960Z,19.61
2023-05-05T11:06:05.760Z,19.67
2023-05-05T11:07:13.831Z,19.62
2023-05-05T11:08:27.943Z,19.60
2023-05-05T11:09:32.907Z,19.61
2023-05-05T11:10:46.665Z,19.61
2023-05-05T11:12:10.300Z,19.61
2023-05-05T11:13:14.171Z,19.62
2023-05-05T11:14:25.015Z,19.65
2023-05-05T11:15:31.801Z,19.67
2023-05-05T11:16:50.611Z,19.69
2023-05-05T11:18:01.874Z,19.71
2023-05-05T11:19:53.885Z,19.74
2023-05-05T11:21:00.808Z,19.78
2023-05-05T11:22:05.108Z,19.78
2023-05-05T11:23:09.433Z,19.75
2023-05-05T11:24:31.637Z,19.78
2023-05-05T11:25:41.154Z,19.75
2023-05-05T11:26:52.767Z,19.71
2023-05-05T11:28:24.443Z,19.76
2023-05-05T11:30:03.986Z,19.80
2023-05-05T11:31:07.811Z,19.83
2023-05-05T11:32:13.964Z,19.92
2023-05-05T11:33:39.318Z,19.95
2023-05-05T11:34:53.155Z,20.00
2023-05-05T11:35:58.603Z,20.03
2023-05-05T11:37:13.164Z,20.07
2023-05-05T11:38:21.306Z,20.11
2023-05-05T11:39:45.844Z,20.18
2023-05-05T11:41:35.465Z,20.22
2023-05-05T11:42:50.198Z,20.25
2023-05-05T11:44:22.239Z,20.32
2023-05-05T11:45:41.195Z,20.33
2023-05-05T11:46:56.910Z,20.30
2023-05-05T11:48:28.920Z,20.34
2023-05-05T11:49:44.627Z,20.31
2023-05-05T11:50:49.634Z,20.31
2023-05-05T11:52:04.064Z,20.32
2023-05-05T11:53:14.230Z,20.32
2023-05-05T11:54:22.118Z,20.23
2023-05-05T11:55:28.300Z,20.17
2023-05-05T11:56:32.436Z,20.11
2023-05-05T11:57:37.441Z,20.03
2023-05-05T11:58:42.178Z,20.04
2023-05-05T12:00:05.173Z,20.03
2023-05-05T12:01:10.481Z,19.93
2023-05-05T12:02:18.917Z,19.87
2023-05-05T12:03:23.122Z,19.91
2023-05-05T12:04:28.035Z,19.86
2023-05-05T12:05:34.231Z,19.87
2023-05-05T12:06:42.789Z,19.82
2023-05-05T12:07:48.171Z,19.80
2023-05-05T12:08:54.330Z,19.76
2023-05-05T12:09:58.622Z,19.75
2023-05-05T12:11:09.889Z,19.77
2023-05-05T12:12:17.065Z,19.75
2023-05-05T12:13:25.390Z,19.80
2023-05-05T12:14:34.647Z,19.83
2023-05-05T12:15:38.584Z,19.86
2023-05-05T12:17:14.826Z,19.88
2023-05-05T12:18:20.866Z,19.92
2023-05-05T12:19:33.218Z,19.93
2023-05-05T12:20:37.547Z,19.94
2023-05-05T12:21:46.288Z,19.94
2023-05-05T12:22:50.636Z,19.94
2023-05-05T12:23:54.606Z,19.96
2023-05-05T12:25:02.515Z,19.98
2023-05-05T12:26:07.761Z,20.01
2023-05-05T12:27:12.296Z,20.05
2023-05-05T12:28:16.267Z,20.08
2023-05-05T12:29:29.970Z,20.08
2023-05-05T12:30:35.045Z,20.09
2023-05-05T12:31:41.278Z,20.09
2023-05-05T12:32:46.720Z,20.08
2023-05-05T12:33:52.334Z,20.07
2023-05-05T12:35:00.216Z,20.05
2023-05-05T12:36:05.299Z,20.05
2023-05-05T12:37:11.580Z,20.06
2023-05-05T12:38:16.638Z,20.13
2023-05-05T12:39:21.030Z,20.16
2023-05-05T12:40:52.095Z,20.21
2023-05-05T12:42:12.748Z,20.22
2023-05-05T12:43:33.237Z,20.22
2023-05-05T12:44:41.658Z,20.28
2023-05-05T12:45:45.742Z,20.30
2023-05-05T12:46:49.838Z,20.32
2023-05-05T12:47:53.889Z,20.26
2023-05-05T12:49:09.368Z,20.30
2023-05-05T12:50:13.520Z,20.27
2023-05-05T12:51:23.766Z,20.22
2023-05-05T12:52:45.462Z,20.21
2023-05-05T12:54:10.841Z,20.19
2023-05-05T12:55:15.802Z,20.18
2023-05-05T12:56:35.652Z,20.16
2023-05-05T12:58:00.660Z,20.10
2023-05-05T12:59:10.340Z,20.05
2023-05-05T13:00:17.963Z,20.10
2023-05-05T13:01:22.371Z,20.14
2023-05-05T13:02:35.320Z,20.11
2023-05-05T13:03:39.439Z,20.07
2023-05-05T13:04:54.787Z,20.09
2023-05-05T13:05:58.856Z,20.09
2023-05-05T13:07:16.226Z,20.08
2023-05-05T13:08:20.133Z,20.10
2023-05-05T13:09:27.132Z,20.14
2023-05-05T13:10:31.533Z,20.13
2023-05-05T13:11:39.645Z,20.18
2023-05-05T13:12:43.554Z,20.18
2023-05-05T13:13:47.290Z,20.21
2023-05-05T13:14:51.054Z,20.21
2023-05-05T13:15:54.863Z,20.25
2023-05-05T13:16:59.240Z,20.23
2023-05-05T13:18:03.472Z,20.26
2023-05-05T13:19:07.275Z,20.23
2023-05-05T13:20:11.498Z,20.21
2023-05-05T13:21:15.873Z,20.24
2023-05-05T13:22:19.785Z,20.30
2023-05-05T13:23:24.659Z,20.30
2023-05-05T13:24:46.667Z,20.31
2023-05-05T13:25:53.658Z,20.34
2023-05-05T13:26:57.571Z,20.39
2023-05-05T13:28:01.674Z,20.37
2023-05-05T13:29:09.182Z,20.36
2023-05-05T13:30:16.868Z,20.39
2023-05-05T13:31:40.748Z,20.38
2023-05-05T13:32:45.505Z,20.44
2023-05-05T13:33:51.620Z,20.47
2023-05-05T13:34:56.216Z,20.48
2023-05-05T13:36:01.144Z,20.45
2023-05-05T13:37:06.042Z,20.47
2023-05-05T13:38:10.811Z,20.44
2023-05-05T13:39:14.942Z,20.40
2023-05-05T13:40:18.937Z,20.44
2023-05-05T13:41:22.885Z,20.38
2023-05-05T13:42:26.994Z,20.39
2023-05-05T13:43:31.610Z,20.34
2023-05-05T13:44:36.274Z,20.33
2023-05-05T13:45:41.898Z,20.29
2023-05-05T13:46:46.641Z,20.34
2023-05-05T13:47:50.577Z,20.39
2023-05-05T13:48:56.686Z,20.46
2023-05-05T13:50:01.047Z,20.42
2023-05-05T13:51:05.923Z,20.41
2023-05-05T13:52:13.341Z,20.49
2023-05-05T13:53:17.773Z,20.48
2023-05-05T13:54:21.955Z,20.45
2023-05-05T13:55:28.268Z,20.45
2023-05-05T13:56:33.041Z,20.46
2023-05-05T13:57:37.258Z,20.47
2023-05-05T13:58:41.477Z,20.46
2023-05-05T13:59:46.258Z,20.46
2023-05-05T14:00:58.275Z,20.46
2023-05-05T14:02:02.097Z,20.45
2023-05-05T14:03:08.931Z,20.44
2023-05-05T14:04:13.104Z,20.49
2023-05-05T14:05:17.706Z,20.49
2023-05-05T14:06:22.190Z,20.48
2023-05-05T14:07:26.452Z,20.47
2023-05-05T14:08:30.353Z,20.50
2023-05-05T14:09:34.384Z,20.51
2023-05-05T14:10:38.575Z,20.51
2023-05-05T14:11:45.391Z,20.51
2023-05-05T14:12:49.497Z,20.46
2023-05-05T14:13:53.403Z,20.51
2023-05-05T14:14:57.214Z,20.54
2023-05-05T14:16:01.332Z,20.56
2023-05-05T14:17:05.962Z,20.60
2023-05-05T14:18:10.000Z,20.65
2023-05-05T14:19:13.944Z,20.74
2023-05-05T14:20:18.006Z,20.71
2023-05-05T14:21:21.901Z,20.75
2023-05-05T14:22:26.074Z,20.68
2023-05-05T14:23:30.455Z,20.69
2023-05-05T14:24:34.425Z,20.69
2023-05-05T14:25:38.981Z,20.68
2023-05-05T14:26:42.836Z,20.68
2023-05-05T14:27:47.042Z,20.70
2023-05-05T14:28:51.381Z,20.66
2023-05-05T14:29:55.228Z,20.69
2023-05-05T14:30:59.061Z,20.73
2023-05-05T14:32:03.435Z,20.78
2023-05-05T14:33:07.757Z,20.78
2023-05-05T14:34:11.696Z,20.73
2023-05-05T14:35:16.025Z,20.68
2023-05-05T14:36:20.675Z,20.66
2023-05-05T14:37:24.874Z,20.64
2023-05-05T14:38:28.666Z,20.64
2023-05-05T14:39:33.496Z,20.68
2023-05-05T14:40:37.502Z,20.67